createdAt,value
2023-08-06T00:01:57.708Z,1.83
2023-08-06T00:04:24.811Z,2.03
2023-08-06T00:06:54.930Z,1.87
2023-08-06T00:09:21.968Z,2.14
2023-08-06T00:11:49.260Z,1.81
2023-08-06T00:14:22.126Z,1.87
2023-08-06T00:20:18.451Z,1.81
2023-08-06T00:23:31.786Z,1.81
2023-08-06T00:26:03.565Z,1.91
2023-08-06T00:28:57.195Z,1.91
2023-08-06T00:32:03.249Z,1.63
2023-08-06T00:35:21.930Z,1.82
2023-08-06T00:41:21.727Z,2.35
2023-08-06T00:43:54.919Z,3.51
2023-08-06T00:44:36.557Z,1.93
2023-08-06T00:51:21.400Z,1.50
2023-08-06T00:55:01.400Z,1.66
2023-08-06T01:03:19.326Z,1.53
2023-08-06T01:04:15.340Z,1.73
2023-08-06T01:07:10.413Z,1.48
2023-08-06T01:17:18.102Z,1.61
2023-08-06T01:22:56.178Z,1.52
2023-08-06T01:26:45.707Z,1.37
2023-08-06T01:27:21.893Z,1.23
2023-08-06T01:30:24.172Z,1.15
2023-08-06T01:36:16.112Z,1.17
2023-08-06T01:38:44.225Z,1.31
2023-08-06T01:41:20.638Z,1.57
2023-08-06T01:44:03.660Z,1.68
2023-08-06T01:46:41.811Z,1.51
2023-08-06T01:49:14.920Z,1.34
2023-08-06T01:52:00.060Z,1.65
2023-08-06T02:03:48.187Z,1.49
2023-08-06T02:06:15.852Z,1.37
2023-08-06T02:08:43.581Z,1.36
2023-08-06T02:11:16.327Z,1.36
2023-08-06T02:13:43.564Z,1.23
2023-08-06T02:16:14.190Z,1.35
2023-08-06T02:18:42.758Z,1.34
2023-08-06T02:21:15.716Z,1.16
2023-08-06T02:23:46.038Z,1.30
2023-08-06T02:26:20.304Z,1.26
2023-08-06T02:28:49.970Z,1.19
2023-08-06T02:31:18.208Z,1.31
2023-08-06T02:33:46.445Z,1.34
2023-08-06T02:36:17.082Z,1.25
2023-08-06T02:38:54.249Z,1.32
2023-08-06T02:44:07.505Z,1.16
2023-08-06T02:46:50.976Z,1.00
2023-08-06T02:49:30.008Z,1.11
2023-08-06T02:52:07.234Z,1.07
2023-08-06T02:54:48.873Z,1.05
2023-08-06T03:00:07.106Z,1.06
2023-08-06T03:02:36.966Z,1.12
2023-08-06T03:07:57.639Z,1.11
2023-08-06T03:10:43.311Z,1.09
2023-08-06T03:13:25.723Z,1.11
2023-08-06T03:16:09.456Z,1.06
2023-08-06T03:18:39.756Z,1.13
2023-08-06T03:21:10.573Z,1.20
2023-08-06T03:23:40.407Z,1.24
2023-08-06T03:29:12.581Z,1.26
2023-08-06T03:31:54.288Z,1.40
2023-08-06T03:34:42.907Z,1.28
2023-08-06T03:37:29.572Z,1.38
2023-08-06T03:43:18.318Z,1.53
2023-08-06T03:44:07.619Z,1.66
2023-08-06T03:50:06.293Z,1.95
2023-08-06T03:53:07.830Z,2.35
2023-08-06T03:55:58.594Z,2.39
2023-08-06T03:58:31.175Z,2.73
2023-08-06T04:01:52.097Z,2.82
2023-08-06T04:04:40.042Z,2.74
2023-08-06T04:10:44.480Z,2.75
2023-08-06T04:13:35.848Z,3.02
2023-08-06T04:16:12.191Z,2.72
2023-08-06T04:19:05.211Z,2.87
2023-08-06T04:21:45.817Z,2.80
2023-08-06T04:24:23.374Z,2.74
2023-08-06T04:27:07.750Z,3.28
2023-08-06T04:29:38.206Z,2.80
2023-08-06T04:32:19.254Z,2.81
2023-08-06T04:35:12.975Z,2.94
2023-08-06T04:37:40.922Z,2.92
2023-08-06T04:40:11.858Z,2.91
2023-08-06T04:43:05.644Z,2.59
2023-08-06T04:45:37.175Z,2.13
2023-08-06T04:48:15.790Z,2.52
2023-08-06T04:51:06.783Z,2.41
2023-08-06T04:53:44.728Z,2.47
2023-08-06T04:56:23.148Z,2.46
2023-08-06T04:58:55.900Z,2.57
2023-08-06T05:01:30.265Z,2.76
2023-08-06T05:04:15.244Z,2.40
2023-08-06T05:06:56.874Z,2.20
2023-08-06T05:09:37.769Z,2.31
2023-08-06T05:12:18.247Z,2.06
2023-08-06T05:17:43.856Z,2.66
2023-08-06T05:20:29.999Z,2.22
2023-08-06T05:23:21.912Z,2.09
2023-08-06T05:25:52.290Z,2.37
2023-08-06T05:28:24.886Z,2.30
2023-08-06T05:31:15.525Z,2.74
2023-08-06T05:33:43.483Z,2.12
2023-08-06T05:36:13.280Z,2.29
2023-08-06T05:38:41.818Z,2.00
2023-08-06T05:52:21.746Z,1.36
2023-08-06T05:58:08.518Z,1.51
2023-08-06T06:00:48.960Z,1.77
2023-08-06T06:03:43.365Z,1.79
2023-08-06T06:11:08.929Z,1.48
2023-08-06T06:13:20.436Z,1.34
2023-08-06T06:17:11.931Z,1.29
2023-08-06T06:19:43.376Z,1.61
2023-08-06T06:22:27.631Z,1.77
2023-08-06T06:28:12.403Z,1.63
2023-08-06T06:30:51.329Z,1.82
2023-08-06T06:33:47.362Z,1.42
2023-08-06T06:40:51.350Z,1.24
2023-08-06T07:33:25.214Z,1.04
2023-08-06T07:56:27.240Z,0.82
2023-08-06T07:59:23.014Z,0.86
2023-08-06T08:06:13.088Z,0.82
2023-08-06T08:15:20.587Z,0.79
2023-08-06T08:19:00.667Z,0.58
2023-08-06T08:29:18.714Z,0.62
2023-08-06T08:32:18.189Z,0.73
2023-08-06T09:21:28.923Z,0.47
2023-08-06T09:23:58.533Z,0.41
2023-08-06T09:26:25.404Z,0.52
2023-08-06T09:28:54.393Z,0.65
2023-08-06T09:31:21.398Z,0.41
2023-08-06T09:33:48.430Z,0.57
2023-08-06T09:36:15.332Z,0.42
2023-08-06T09:38:42.474Z,0.31
2023-08-06T09:41:09.650Z,0.50
2023-08-06T09:43:45.778Z,0.50
2023-08-06T09:46:13.908Z,0.38
2023-08-06T09:48:41.589Z,0.51
2023-08-06T09:51:09.915Z,0.36
2023-08-06T09:53:39.297Z,0.47
2023-08-06T09:56:23.321Z,0.40
2023-08-06T09:59:15.998Z,0.54
2023-08-06T10:01:49.665Z,0.37
2023-08-06T10:07:27.984Z,0.52
2023-08-06T10:10:22.288Z,0.51
2023-08-06T10:12:57.080Z,0.33
2023-08-06T10:15:27.924Z,0.43
2023-08-06T10:17:58.816Z,0.37
2023-08-06T10:20:25.442Z,8.54
2023-08-06T10:23:06.108Z,3.03
2023-08-06T10:25:36.244Z,0.89
2023-08-06T10:28:10.934Z,0.72
2023-08-06T10:30:45.947Z,0.67
2023-08-06T10:33:12.462Z,0.61
2023-08-06T10:35:46.013Z,0.52
2023-08-06T10:38:15.499Z,0.51
2023-08-06T10:40:49.395Z,0.55
2023-08-06T10:43:30.195Z,0.67
2023-08-06T10:45:58.282Z,0.56
2023-08-06T10:48:31.456Z,0.59
2023-08-06T10:50:58.042Z,0.58
2023-08-06T10:53:24.683Z,0.51
2023-08-06T10:55:51.329Z,0.59
2023-08-06T10:58:17.865Z,0.45
2023-08-06T11:00:44.572Z,0.53
2023-08-06T11:03:11.471Z,0.54
2023-08-06T11:05:38.713Z,0.47
2023-08-06T11:08:05.936Z,0.46
2023-08-06T11:10:34.926Z,0.33
2023-08-06T11:13:05.765Z,0.52
2023-08-06T11:15:34.978Z,0.51
2023-08-06T11:18:05.056Z,0.49
2023-08-06T11:20:38.186Z,0.46
2023-08-06T11:23:06.550Z,0.42
2023-08-06T11:25:38.369Z,0.45
2023-08-06T11:28:05.470Z,0.42
2023-08-06T11:30:32.707Z,0.48
2023-08-06T11:32:59.836Z,0.56
2023-08-06T11:35:27.156Z,0.64
2023-08-06T11:37:55.233Z,0.74
2023-08-06T11:40:22.571Z,0.69
2023-08-06T11:42:49.798Z,0.57
2023-08-06T11:45:17.129Z,0.53
2023-08-06T11:47:51.808Z,0.46
2023-08-06T11:50:28.916Z,0.51
2023-08-06T11:52:58.166Z,0.42
2023-08-06T11:55:26.312Z,0.39
2023-08-06T11:57:53.799Z,0.46
2023-08-06T12:00:21.422Z,0.37
2023-08-06T12:02:49.600Z,0.45
2023-08-06T12:05:19.021Z,0.49
2023-08-06T12:07:47.522Z,0.47
2023-08-06T12:10:16.185Z,0.63
2023-08-06T12:12:43.521Z,0.56
2023-08-06T12:15:11.606Z,0.55
2023-08-06T12:17:39.344Z,0.62
2023-08-06T12:20:08.425Z,0.55
2023-08-06T12:22:36.368Z,0.60
2023-08-06T12:25:05.365Z,0.58
2023-08-06T12:27:32.294Z,0.44
2023-08-06T12:29:59.143Z,0.64
2023-08-06T12:32:27.422Z,0.57
2023-08-06T12:34:54.565Z,0.47
2023-08-06T12:37:21.910Z,0.47
2023-08-06T12:39:48.881Z,0.56
2023-08-06T12:42:16.103Z,0.57
2023-08-06T12:44:43.195Z,0.54
2023-08-06T12:47:14.324Z,0.50
2023-08-06T12:49:41.872Z,0.78
2023-08-06T12:52:08.821Z,0.71
2023-08-06T12:54:36.179Z,0.55
2023-08-06T12:57:04.138Z,0.59
2023-08-06T12:59:31.527Z,0.52
2023-08-06T13:01:58.552Z,0.64
2023-08-06T13:04:26.541Z,0.47
2023-08-06T13:06:54.322Z,0.58
2023-08-06T13:09:22.192Z,0.56
2023-08-06T13:11:50.114Z,0.48
2023-08-06T13:14:17.416Z,0.49
2023-08-06T13:16:45.485Z,0.51
2023-08-06T13:19:13.410Z,0.52
2023-08-06T13:21:43.832Z,0.47
2023-08-06T13:24:11.223Z,0.43
2023-08-06T13:26:38.103Z,0.52
2023-08-06T13:29:05.127Z,0.50
2023-08-06T13:31:32.371Z,0.46
2023-08-06T13:34:00.854Z,0.57
2023-08-06T13:36:29.034Z,0.74
2023-08-06T13:38:56.866Z,0.60
2023-08-06T13:41:24.587Z,0.71
2023-08-06T13:43:52.900Z,0.69
2023-08-06T13:46:21.365Z,0.52
2023-08-06T13:48:52.426Z,0.49
2023-08-06T13:51:20.283Z,0.66
2023-08-06T13:53:47.877Z,0.66
2023-08-06T13:56:16.098Z,0.68
2023-08-06T13:58:43.987Z,0.62
2023-08-06T14:01:13.598Z,0.66
2023-08-06T14:03:43.210Z,0.77
2023-08-06T14:06:10.572Z,0.78
2023-08-06T14:08:38.063Z,0.87
2023-08-06T14:11:07.745Z,0.74
2023-08-06T14:13:40.057Z,0.76
2023-08-06T14:16:08.807Z,0.64
2023-08-06T14:18:36.197Z,0.73
2023-08-06T14:23:45.412Z,0.70
2023-08-06T14:26:15.263Z,0.68
2023-08-06T14:28:44.233Z,0.60
2023-08-06T14:31:13.133Z,0.64
2023-08-06T14:33:40.610Z,0.70
2023-08-06T14:36:07.544Z,0.71
2023-08-06T14:38:40.539Z,0.63
2023-08-06T14:41:13.526Z,0.61
2023-08-06T14:43:40.758Z,0.53
2023-08-06T14:46:08.243Z,0.44
2023-08-06T14:48:35.767Z,0.69
2023-08-06T14:51:03.092Z,0.48
2023-08-06T14:53:30.525Z,0.56
2023-08-06T14:55:57.910Z,0.47
2023-08-06T14:58:26.008Z,0.60
2023-08-06T15:00:55.583Z,0.56
2023-08-06T15:03:24.225Z,0.51
2023-08-06T15:05:53.106Z,0.50
2023-08-06T15:08:20.256Z,0.56
2023-08-06T15:10:55.125Z,0.43
2023-08-06T15:13:24.728Z,0.38
2023-08-06T15:15:52.196Z,0.47
2023-08-06T15:18:20.678Z,0.47
2023-08-06T15:20:55.771Z,0.44
2023-08-06T15:23:22.867Z,0.41
2023-08-06T15:25:50.062Z,0.47
2023-08-06T15:28:17.147Z,0.42
2023-08-06T15:30:51.559Z,0.39
2023-08-06T15:33:20.001Z,0.42
2023-08-06T15:35:47.037Z,0.47
2023-08-06T15:38:14.416Z,0.41
2023-08-06T15:40:41.679Z,0.45
2023-08-06T15:43:08.911Z,0.60
2023-08-06T15:45:35.840Z,0.46
2023-08-06T15:48:02.907Z,0.58
2023-08-06T15:50:29.964Z,1.00
2023-08-06T15:52:57.260Z,0.63
2023-08-06T15:55:24.567Z,0.55
2023-08-06T15:57:53.935Z,0.55
2023-08-06T16:00:21.277Z,0.58
2023-08-06T16:02:49.344Z,0.61
2023-08-06T16:05:18.897Z,0.69
2023-08-06T16:07:46.974Z,0.73
2023-08-06T16:10:14.305Z,0.70
2023-08-06T16:12:41.591Z,0.70
2023-08-06T16:15:13.880Z,0.83
2023-08-06T16:17:41.480Z,0.78
2023-08-06T16:20:10.957Z,0.71
2023-08-06T16:22:38.251Z,0.63
2023-08-06T16:25:06.168Z,0.67
2023-08-06T16:27:34.297Z,0.69
2023-08-06T16:30:03.481Z,0.76
2023-08-06T16:32:32.824Z,0.76
2023-08-06T16:34:59.905Z,0.63
2023-08-06T16:37:26.992Z,0.74
2023-08-06T16:39:54.476Z,0.87
2023-08-06T16:42:21.519Z,0.77
2023-08-06T16:44:48.380Z,0.79
2023-08-06T16:47:15.187Z,0.72
2023-08-06T16:49:42.169Z,0.71
2023-08-06T16:52:09.126Z,0.98
2023-08-06T16:54:36.060Z,0.76
2023-08-06T16:57:02.927Z,1.01
2023-08-06T16:59:29.998Z,0.99
2023-08-06T17:01:57.343Z,1.03
2023-08-06T17:04:47.372Z,1.02
2023-08-06T17:07:14.453Z,0.89
2023-08-06T17:09:41.587Z,1.02
2023-08-06T17:12:09.662Z,1.32
2023-08-06T17:14:37.272Z,1.48
2023-08-06T17:17:04.928Z,1.15
2023-08-06T17:19:32.881Z,1.52
2023-08-06T17:22:07.891Z,1.15
2023-08-06T17:24:38.720Z,1.16
2023-08-06T17:27:07.200Z,1.17
2023-08-06T17:29:34.483Z,1.35
2023-08-06T17:32:01.564Z,1.67
2023-08-06T17:34:28.509Z,1.53
2023-08-06T17:36:55.655Z,1.26
2023-08-06T17:39:23.282Z,1.21
2023-08-06T17:41:50.437Z,1.22
2023-08-06T17:44:17.347Z,1.18
2023-08-06T17:46:44.586Z,1.18
2023-08-06T17:49:11.649Z,1.13
2023-08-06T17:51:38.407Z,1.27
2023-08-06T17:54:05.224Z,1.11
2023-08-06T17:56:31.988Z,1.23
2023-08-06T17:58:58.726Z,1.42
2023-08-06T18:01:25.730Z,1.68
2023-08-06T18:03:52.578Z,1.58
2023-08-06T18:06:19.375Z,1.37
2023-08-06T18:08:46.527Z,1.27
2023-08-06T18:11:13.332Z,1.24
2023-08-06T18:13:40.154Z,1.07
2023-08-06T18:16:06.899Z,1.31
2023-08-06T18:18:33.747Z,1.68
2023-08-06T18:21:00.615Z,1.39
2023-08-06T18:23:27.467Z,1.28
2023-08-06T18:25:54.294Z,1.25
2023-08-06T18:28:21.035Z,1.15
2023-08-06T18:30:47.922Z,1.28
2023-08-06T18:33:14.815Z,1.51
2023-08-06T18:35:43.238Z,1.42
2023-08-06T18:38:10.105Z,1.34
2023-08-06T18:40:36.824Z,1.68
2023-08-06T18:43:03.847Z,1.56
2023-08-06T18:45:30.572Z,1.60
2023-08-06T18:47:57.346Z,1.18
2023-08-06T18:50:24.112Z,1.24
2023-08-06T18:52:50.931Z,1.38
2023-08-06T18:55:19.428Z,1.54
2023-08-06T18:57:46.215Z,1.72
2023-08-06T19:00:13.576Z,1.83
2023-08-06T19:02:40.421Z,1.84
2023-08-06T19:05:07.999Z,1.73
2023-08-06T19:07:34.917Z,1.60
2023-08-06T19:10:01.813Z,1.36
2023-08-06T19:12:28.652Z,1.21
2023-08-06T19:14:55.584Z,1.17
2023-08-06T19:17:22.930Z,1.18
2023-08-06T19:19:49.883Z,1.66
2023-08-06T19:22:16.720Z,1.46
2023-08-06T19:24:43.796Z,1.46
2023-08-06T19:27:10.889Z,1.31
2023-08-06T19:29:37.912Z,1.30
2023-08-06T19:32:07.123Z,1.61
2023-08-06T19:34:35.372Z,1.59
2023-08-06T19:37:02.565Z,1.66
2023-08-06T19:39:29.974Z,1.56
2023-08-06T19:41:57.793Z,1.37
2023-08-06T19:44:25.276Z,1.65
2023-08-06T19:46:52.410Z,1.40
2023-08-06T19:49:19.906Z,1.44
2023-08-06T19:51:47.724Z,1.19
2023-08-06T19:54:14.903Z,1.39
2023-08-06T19:56:42.357Z,1.48
2023-08-06T19:59:10.665Z,1.28
2023-08-06T20:01:37.721Z,1.30
2023-08-06T20:04:07.809Z,1.41
2023-08-06T20:06:37.514Z,1.58
2023-08-06T20:09:04.783Z,1.60
2023-08-06T20:11:31.983Z,1.53
2023-08-06T20:13:59.228Z,1.51
2023-08-06T20:16:31.574Z,1.64
2023-08-06T20:18:58.662Z,1.73
2023-08-06T20:21:25.857Z,1.75
2023-08-06T20:23:52.938Z,1.62
2023-08-06T20:26:20.044Z,1.44
2023-08-06T20:28:48.559Z,1.63
2023-08-06T20:31:16.599Z,1.74
2023-08-06T20:33:43.887Z,1.82
2023-08-06T20:36:11.319Z,1.82
2023-08-06T20:38:38.758Z,1.97
2023-08-06T20:41:06.643Z,2.09
2023-08-06T20:43:33.979Z,2.02
2023-08-06T20:46:01.404Z,1.97
2023-08-06T20:48:29.042Z,2.11
2023-08-06T20:50:59.900Z,1.99
2023-08-06T20:53:27.060Z,2.16
2023-08-06T20:56:02.436Z,2.26
2023-08-06T20:58:30.181Z,2.39
2023-08-06T21:00:58.965Z,2.00
2023-08-06T21:03:30.014Z,2.06
2023-08-06T21:06:06.537Z,2.16
2023-08-06T21:08:35.751Z,1.92
2023-08-06T21:11:04.688Z,1.91
2023-08-06T21:13:32.419Z,2.13
2023-08-06T21:16:00.887Z,1.97
2023-08-06T21:18:33.202Z,2.00
2023-08-06T21:21:01.781Z,1.98
2023-08-06T21:23:28.970Z,2.24
2023-08-06T21:26:04.881Z,2.50
2023-08-06T21:28:33.257Z,2.40
2023-08-06T21:31:04.283Z,2.52
2023-08-06T21:33:34.133Z,2.15
2023-08-06T21:36:03.799Z,2.21
2023-08-06T21:38:32.563Z,2.39
2023-08-06T21:41:14.628Z,2.14
2023-08-06T21:43:45.323Z,2.35
2023-08-06T21:46:15.104Z,2.28
2023-08-06T21:48:44.257Z,2.32
2023-08-06T21:51:14.204Z,2.32
2023-08-06T21:53:41.768Z,2.24
2023-08-06T21:56:10.843Z,1.80
2023-08-06T21:58:39.524Z,1.85
2023-08-06T22:01:08.034Z,1.84
2023-08-06T22:03:36.033Z,2.10
2023-08-06T22:06:03.420Z,1.83
2023-08-06T22:08:30.558Z,1.70
2023-08-06T22:10:57.841Z,1.41
2023-08-06T22:13:25.815Z,1.61
2023-08-06T22:15:52.883Z,1.45
2023-08-06T22:18:20.120Z,1.68
2023-08-06T22:20:48.167Z,1.64
2023-08-06T22:23:15.591Z,1.50
2023-08-06T22:25:42.493Z,1.47
2023-08-06T22:28:09.390Z,1.46
2023-08-06T22:30:36.182Z,1.40
2023-08-06T22:33:03.566Z,1.45
2023-08-06T22:35:30.543Z,1.54
2023-08-06T22:37:57.498Z,1.63
2023-08-06T22:40:25.241Z,1.73
2023-08-06T22:42:57.531Z,1.51
2023-08-06T22:45:24.211Z,1.40
2023-08-06T22:47:51.012Z,1.49
2023-08-06T22:50:17.711Z,1.46
2023-08-06T22:52:50.022Z,1.30
2023-08-06T23:03:19.846Z,1.53
2023-08-06T23:05:47.878Z,1.49
2023-08-06T23:08:14.740Z,1.47
2023-08-06T23:10:41.506Z,1.53
2023-08-06T23:13:08.294Z,1.65
2023-08-06T23:15:35.189Z,1.42
2023-08-06T23:18:02.107Z,1.45
2023-08-06T23:20:28.841Z,1.51
2023-08-06T23:22:56.907Z,1.49
2023-08-06T23:28:08.909Z,1.61
2023-08-06T23:30:35.621Z,1.65
2023-08-06T23:33:02.492Z,1.45
2023-08-06T23:35:29.233Z,1.53
2023-08-06T23:40:36.458Z,1.32
2023-08-06T23:43:03.205Z,1.46
2023-08-06T23:45:30.036Z,1.72
2023-08-06T23:53:18.642Z,1.51
2023-08-06T23:55:45.664Z,1.63
2023-08-06T23:58:12.530Z,1.44
